Time;durP1;ratioP1;P1;durP2;ratioP2;P2;SDS_P1;SDS_P2;PMS_P1;PMS_P2;Temp;Humidity;BMP_temperature;BMP_pressure;BME280_temperature;BME280_humidity;BME280_pressure;Samples;Min_cycle;Max_cycle;Signal;HPM_P1;HPM_P2
2021/07/29 00:01:20;;;;;;;9.93;3.95;;;;;;;;;;5038217;28;20030;-78
2021/07/29 00:04:05;;;;;;;7.68;3.83;;;;;;;;;;5018740;28;20029;-78
2021/07/29 00:06:50;;;;;;;6.55;3.72;;;;;;;;;;5018280;28;20459;-78
2021/07/29 00:09:36;;;;;;;4.20;3.03;;;;;;;;;;5019834;28;20039;-78
2021/07/29 00:12:21;;;;;;;6.07;3.78;;;;;;;;;;5032387;28;20502;-79
2021/07/29 00:15:10;;;;;;;5.22;3.80;;;;;;;;;;5020699;28;20101;-78
2021/07/29 00:20:42;;;;;;;7.32;3.90;;;;;;;;;;5033240;28;20056;-77
2021/07/29 00:23:27;;;;;;;10.70;3.67;;;;;;;;;;5023107;28;20025;-77
2021/07/29 00:26:12;;;;;;;5.30;4.03;;;;;;;;;;5021462;28;20029;-77
2021/07/29 00:28:57;;;;;;;6.97;3.67;;;;;;;;;;5016669;28;20104;-78
2021/07/29 00:31:42;;;;;;;8.05;3.45;;;;;;;;;;5025733;28;20036;-77
2021/07/29 00:34:28;;;;;;;4.95;3.63;;;;;;;;;;5018278;28;20100;-77
2021/07/29 00:37:13;;;;;;;6.07;3.90;;;;;;;;;;5029011;28;20033;-78
2021/07/29 00:39:58;;;;;;;9.02;3.60;;;;;;;;;;5020018;28;20108;-78
2021/07/29 00:42:44;;;;;;;5.72;3.67;;;;;;;;;;5029559;28;20238;-78
2021/07/29 00:45:29;;;;;;;5.88;3.80;;;;;;;;;;5023162;28;20021;-78
2021/07/29 00:48:14;;;;;;;7.38;3.97;;;;;;;;;;5023053;28;20033;-78
2021/07/29 00:51:00;;;;;;;7.10;3.45;;;;;;;;;;5021206;28;20108;-78
2021/07/29 00:53:46;;;;;;;6.53;3.83;;;;;;;;;;5027704;28;20028;-77
2021/07/29 00:56:32;;;;;;;7.13;3.42;;;;;;;;;;5022786;28;20462;-78
2021/07/29 00:59:17;;;;;;;6.07;3.50;;;;;;;;;;5043830;28;20124;-78
2021/07/29 01:02:03;;;;;;;5.95;3.92;;;;;;;;;;5040934;28;20033;-79
2021/07/29 01:04:48;;;;;;;6.00;3.60;;;;;;;;;;5017481;28;20030;-79
2021/07/29 01:07:33;;;;;;;6.15;3.65;;;;;;;;;;5025939;28;20116;-79
2021/07/29 01:10:19;;;;;;;7.80;3.78;;;;;;;;;;5018459;28;20166;-78
2021/07/29 01:13:05;;;;;;;5.50;3.60;;;;;;;;;;5026966;28;20022;-79
2021/07/29 01:15:50;;;;;;;6.78;4.13;;;;;;;;;;5038468;28;20045;-79
2021/07/29 01:18:35;;;;;;;5.85;3.72;;;;;;;;;;5020106;28;20032;-79
2021/07/29 01:21:21;;;;;;;6.07;3.63;;;;;;;;;;5017189;28;20032;-81
2021/07/29 01:24:06;;;;;;;13.05;4.25;;;;;;;;;;5032091;28;20067;-78
2021/07/29 01:26:52;;;;;;;7.00;3.90;;;;;;;;;;5021925;28;20032;-78
2021/07/29 01:29:37;;;;;;;6.53;3.75;;;;;;;;;;5014748;28;20383;-78
2021/07/29 01:32:22;;;;;;;7.18;3.45;;;;;;;;;;5023594;28;20033;-78
2021/07/29 01:35:08;;;;;;;5.55;3.05;;;;;;;;;;5023995;28;20040;-78
2021/07/29 01:37:54;;;;;;;10.15;3.58;;;;;;;;;;5027290;28;20464;-77
2021/07/29 01:40:39;;;;;;;7.55;3.53;;;;;;;;;;5023257;28;20063;-78
2021/07/29 01:43:24;;;;;;;7.15;3.65;;;;;;;;;;5042436;28;20411;-77
2021/07/29 01:46:10;;;;;;;4.78;3.40;;;;;;;;;;5014921;28;20047;-78
2021/07/29 01:48:55;;;;;;;4.07;3.28;;;;;;;;;;5024213;28;20025;-78
2021/07/29 01:51:40;;;;;;;8.13;3.63;;;;;;;;;;5014094;28;20080;-78
2021/07/29 01:54:25;;;;;;;6.25;3.58;;;;;;;;;;5026239;28;20035;-78
2021/07/29 01:57:11;;;;;;;4.57;3.35;;;;;;;;;;5029151;28;20099;-77
2021/07/29 01:59:56;;;;;;;7.00;3.45;;;;;;;;;;5032335;28;20044;-78
2021/07/29 02:02:41;;;;;;;5.38;3.55;;;;;;;;;;5019608;28;20103;-78
2021/07/29 02:05:27;;;;;;;6.40;3.47;;;;;;;;;;5030181;28;20056;-78
2021/07/29 02:08:12;;;;;;;7.65;3.85;;;;;;;;;;5045354;28;20376;-79
2021/07/29 02:10:57;;;;;;;7.35;3.78;;;;;;;;;;5012284;28;20059;-79
2021/07/29 02:13:42;;;;;;;7.32;3.80;;;;;;;;;;5019494;28;22315;-79
2021/07/29 02:16:27;;;;;;;8.52;3.80;;;;;;;;;;5023550;28;20072;-79
2021/07/29 02:19:12;;;;;;;8.00;3.88;;;;;;;;;;5020286;28;20029;-79
2021/07/29 02:21:58;;;;;;;7.90;3.65;;;;;;;;;;5040286;28;20430;-78
2021/07/29 02:24:43;;;;;;;5.40;3.60;;;;;;;;;;5031602;28;20028;-80
2021/07/29 02:27:28;;;;;;;7.63;3.28;;;;;;;;;;5025889;28;20025;-79
2021/07/29 02:30:13;;;;;;;6.18;3.83;;;;;;;;;;5022719;28;20075;-78
2021/07/29 02:32:59;;;;;;;7.38;3.95;;;;;;;;;;5024871;28;20013;-78
2021/07/29 02:35:47;;;;;;;5.63;3.88;;;;;;;;;;5015090;28;20033;-78
2021/07/29 02:38:32;;;;;;;6.22;3.45;;;;;;;;;;5027435;28;20029;-78
2021/07/29 02:41:19;;;;;;;7.32;3.40;;;;;;;;;;5020674;28;20516;-77
2021/07/29 02:44:04;;;;;;;7.35;4.22;;;;;;;;;;5015776;28;20108;-78
2021/07/29 02:46:49;;;;;;;6.50;3.45;;;;;;;;;;5018505;28;20492;-76
2021/07/29 02:49:35;;;;;;;7.03;4.05;;;;;;;;;;5022022;28;20034;-76
2021/07/29 02:52:20;;;;;;;7.63;3.63;;;;;;;;;;5014851;28;20112;-77
2021/07/29 02:55:06;;;;;;;6.25;3.53;;;;;;;;;;5018991;28;20337;-79
2021/07/29 02:57:51;;;;;;;6.80;3.25;;;;;;;;;;5013077;28;20023;-78
2021/07/29 03:00:36;;;;;;;8.25;3.50;;;;;;;;;;5015894;28;20036;-77
2021/07/29 03:03:21;;;;;;;6.10;3.58;;;;;;;;;;5039451;28;20017;-78
2021/07/29 03:06:06;;;;;;;8.73;4.07;;;;;;;;;;5019777;28;20047;-78
2021/07/29 03:08:52;;;;;;;8.88;3.88;;;;;;;;;;5014013;28;20393;-78
2021/07/29 03:11:37;;;;;;;8.85;3.97;;;;;;;;;;5015013;28;20087;-78
2021/07/29 03:14:22;;;;;;;6.40;3.60;;;;;;;;;;5023716;28;20483;-78
2021/07/29 03:17:07;;;;;;;6.30;3.65;;;;;;;;;;5013359;28;20655;-78
2021/07/29 03:19:52;;;;;;;9.18;3.90;;;;;;;;;;5014317;28;20017;-78
2021/07/29 03:22:37;;;;;;;5.60;3.67;;;;;;;;;;5024532;28;20441;-78
2021/07/29 03:25:23;;;;;;;8.73;4.55;;;;;;;;;;5018743;28;20494;-78
2021/07/29 03:28:08;;;;;;;7.85;4.18;;;;;;;;;;5013354;28;20044;-79
2021/07/29 03:30:53;;;;;;;6.50;3.70;;;;;;;;;;5021521;28;20570;-78
2021/07/29 03:33:38;;;;;;;5.93;4.00;;;;;;;;;;5024069;28;20033;-78
2021/07/29 03:36:24;;;;;;;7.30;3.97;;;;;;;;;;5025322;28;20424;-78
2021/07/29 03:39:09;;;;;;;8.27;4.55;;;;;;;;;;5015763;28;20105;-78
2021/07/29 03:41:55;;;;;;;5.57;3.83;;;;;;;;;;5018232;28;20433;-78
2021/07/29 03:44:40;;;;;;;8.23;4.40;;;;;;;;;;5019882;28;20036;-78
2021/07/29 03:47:26;;;;;;;8.80;4.55;;;;;;;;;;5031331;28;20087;-79
2021/07/29 03:50:11;;;;;;;9.25;4.25;;;;;;;;;;5016394;28;20387;-79
2021/07/29 03:52:56;;;;;;;6.57;4.10;;;;;;;;;;5023942;28;20032;-79
2021/07/29 03:55:42;;;;;;;10.00;4.57;;;;;;;;;;5026393;28;20491;-79
2021/07/29 03:58:27;;;;;;;8.25;4.47;;;;;;;;;;5020177;28;20505;-79
2021/07/29 04:01:12;;;;;;;6.68;4.28;;;;;;;;;;5022815;28;20029;-78
2021/07/29 04:03:57;;;;;;;7.90;4.32;;;;;;;;;;5023424;28;20387;-79
2021/07/29 04:06:42;;;;;;;8.80;4.65;;;;;;;;;;5031910;28;20025;-78
2021/07/29 04:09:28;;;;;;;6.43;4.28;;;;;;;;;;5037501;28;20523;-79
2021/07/29 04:12:13;;;;;;;10.63;4.28;;;;;;;;;;5034788;28;20028;-78
2021/07/29 04:14:58;;;;;;;8.85;4.88;;;;;;;;;;5028629;28;20024;-78
2021/07/29 04:17:43;;;;;;;10.45;4.40;;;;;;;;;;5024739;28;20067;-77
2021/07/29 04:20:29;;;;;;;6.47;4.20;;;;;;;;;;5026252;28;20750;-78
2021/07/29 04:23:14;;;;;;;7.05;4.55;;;;;;;;;;5033305;28;20037;-78
2021/07/29 04:25:59;;;;;;;6.38;4.88;;;;;;;;;;5036310;28;20116;-79
2021/07/29 04:28:44;;;;;;;7.10;4.40;;;;;;;;;;5020105;28;20037;-78
2021/07/29 04:31:29;;;;;;;8.00;4.63;;;;;;;;;;5031077;28;20472;-79
2021/07/29 04:34:14;;;;;;;9.25;4.60;;;;;;;;;;5044064;28;20059;-77
2021/07/29 04:37:00;;;;;;;8.52;4.85;;;;;;;;;;5027937;28;20033;-78
2021/07/29 04:39:45;;;;;;;7.75;4.63;;;;;;;;;;5019312;28;20104;-79
2021/07/29 04:42:30;;;;;;;8.65;4.90;;;;;;;;;;5034296;28;20053;-79
2021/07/29 04:45:15;;;;;;;8.60;4.88;;;;;;;;;;5037219;28;20143;-79
2021/07/29 04:48:00;;;;;;;7.85;4.75;;;;;;;;;;5029674;28;20118;-81
2021/07/29 04:50:46;;;;;;;7.28;4.63;;;;;;;;;;5024211;28;20203;-77
2021/07/29 04:53:31;;;;;;;9.25;4.00;;;;;;;;;;5031529;28;20029;-77
2021/07/29 04:56:17;;;;;;;11.40;5.28;;;;;;;;;;5018710;28;20536;-77
2021/07/29 04:59:02;;;;;;;9.68;5.18;;;;;;;;;;5024755;28;20416;-77
2021/07/29 05:01:47;;;;;;;10.40;5.10;;;;;;;;;;5026931;28;20476;-79
2021/07/29 05:04:33;;;;;;;6.82;4.25;;;;;;;;;;5024055;28;20032;-78
2021/07/29 05:07:18;;;;;;;6.88;4.25;;;;;;;;;;5028205;28;20428;-78
2021/07/29 05:10:03;;;;;;;9.15;4.70;;;;;;;;;;5026838;28;20025;-78
2021/07/29 05:12:49;;;;;;;7.65;4.53;;;;;;;;;;5029016;28;20477;-78
2021/07/29 05:15:35;;;;;;;8.23;4.80;;;;;;;;;;5031080;28;20032;-77
2021/07/29 05:18:20;;;;;;;6.40;4.45;;;;;;;;;;5022803;28;20662;-77
2021/07/29 05:21:07;;;;;;;8.50;4.43;;;;;;;;;;5027173;28;20712;-77
2021/07/29 05:23:52;;;;;;;9.93;5.10;;;;;;;;;;5030030;28;20025;-77
2021/07/29 05:26:37;;;;;;;6.22;4.20;;;;;;;;;;5030855;28;20060;-78
2021/07/29 05:29:22;;;;;;;7.78;4.63;;;;;;;;;;5030083;28;20009;-77
2021/07/29 05:32:08;;;;;;;8.20;4.28;;;;;;;;;;5026369;28;20099;-78
2021/07/29 05:34:53;;;;;;;6.40;4.60;;;;;;;;;;5019843;28;20039;-78
2021/07/29 05:37:38;;;;;;;8.50;4.38;;;;;;;;;;5044879;28;20391;-77
2021/07/29 05:40:23;;;;;;;7.07;4.38;;;;;;;;;;5033675;28;20064;-78
2021/07/29 05:43:08;;;;;;;8.13;4.53;;;;;;;;;;5034933;28;20044;-78
2021/07/29 05:45:54;;;;;;;7.78;4.40;;;;;;;;;;5035554;28;20376;-77
2021/07/29 05:48:39;;;;;;;8.68;4.95;;;;;;;;;;5031755;28;20035;-76
2021/07/29 05:51:24;;;;;;;7.35;4.00;;;;;;;;;;5034492;28;20056;-76
2021/07/29 05:54:09;;;;;;;6.50;4.18;;;;;;;;;;5049231;28;20458;-77
2021/07/29 05:56:55;;;;;;;8.13;4.75;;;;;;;;;;5031460;28;20403;-77
2021/07/29 05:59:41;;;;;;;7.85;4.35;;;;;;;;;;5033944;28;20037;-77
2021/07/29 06:02:26;;;;;;;6.45;3.50;;;;;;;;;;5015808;28;20037;-80
2021/07/29 06:05:12;;;;;;;6.70;4.18;;;;;;;;;;5022260;28;20059;-78
2021/07/29 06:08:00;;;;;;;5.13;3.55;;;;;;;;;;5014654;28;20041;-77
2021/07/29 06:10:48;;;;;;;8.13;3.75;;;;;;;;;;5025933;28;20020;-76
2021/07/29 06:13:34;;;;;;;8.50;4.10;;;;;;;;;;5020186;28;20024;-76
2021/07/29 06:16:19;;;;;;;4.85;3.50;;;;;;;;;;5032409;28;20380;-78
2021/07/29 06:19:06;;;;;;;13.07;8.02;;;;;;;;;;5024267;28;20184;-77
2021/07/29 06:21:51;;;;;;;8.63;6.57;;;;;;;;;;5021491;28;20740;-77
2021/07/29 06:24:36;;;;;;;8.77;3.80;;;;;;;;;;5025777;28;20063;-77
2021/07/29 06:27:22;;;;;;;6.18;3.13;;;;;;;;;;5032499;28;20021;-77
2021/07/29 06:30:07;;;;;;;6.72;3.28;;;;;;;;;;5034079;28;20562;-77
2021/07/29 06:32:52;;;;;;;6.55;3.30;;;;;;;;;;5018756;28;20124;-77
2021/07/29 06:35:37;;;;;;;5.60;3.53;;;;;;;;;;5029899;28;20033;-77
2021/07/29 06:38:23;;;;;;;4.32;3.42;;;;;;;;;;5015864;28;20032;-78
2021/07/29 06:41:08;;;;;;;4.18;2.90;;;;;;;;;;5029345;28;20046;-78
2021/07/29 06:43:54;;;;;;;5.50;3.22;;;;;;;;;;5029875;28;20035;-78
2021/07/29 06:46:39;;;;;;;6.07;3.20;;;;;;;;;;5028545;28;20060;-78
2021/07/29 06:49:28;;;;;;;5.85;3.10;;;;;;;;;;5018715;28;20086;-79
2021/07/29 06:52:14;;;;;;;4.90;2.78;;;;;;;;;;5025536;28;20029;-83
2021/07/29 06:54:59;;;;;;;4.18;2.65;;;;;;;;;;5016981;28;20041;-85
2021/07/29 06:57:44;;;;;;;3.58;2.70;;;;;;;;;;5035909;28;20029;-83
2021/07/29 07:00:29;;;;;;;4.68;2.83;;;;;;;;;;5028963;28;20036;-83
2021/07/29 07:03:15;;;;;;;8.07;5.57;;;;;;;;;;5030908;28;20029;-84
2021/07/29 07:06:06;;;;;;;4.78;3.08;;;;;;;;;;5022377;28;20042;-85
2021/07/29 07:08:52;;;;;;;4.50;2.75;;;;;;;;;;5018557;28;20018;-83
2021/07/29 07:11:37;;;;;;;3.70;2.75;;;;;;;;;;5024026;28;20100;-84
2021/07/29 07:14:22;;;;;;;4.68;2.88;;;;;;;;;;5030582;28;20025;-83
2021/07/29 07:17:07;;;;;;;5.30;3.10;;;;;;;;;;5029620;28;20029;-82
2021/07/29 07:19:57;;;;;;;6.15;2.90;;;;;;;;;;5018255;28;20037;-83
2021/07/29 07:22:43;;;;;;;4.70;2.63;;;;;;;;;;5019025;28;20081;-83
2021/07/29 07:25:28;;;;;;;5.68;3.10;;;;;;;;;;5032595;28;20365;-79
2021/07/29 07:28:13;;;;;;;7.47;3.00;;;;;;;;;;5021118;28;20388;-79
2021/07/29 07:30:58;;;;;;;5.63;2.80;;;;;;;;;;5032172;28;20047;-82
2021/07/29 07:33:44;;;;;;;8.40;4.68;;;;;;;;;;5028277;28;20075;-83
2021/07/29 07:36:29;;;;;;;9.05;3.50;;;;;;;;;;5020454;28;20028;-84
2021/07/29 07:39:17;;;;;;;4.88;3.33;;;;;;;;;;5024301;28;20025;-82
2021/07/29 07:42:03;;;;;;;7.50;3.00;;;;;;;;;;4997789;28;20042;-82
2021/07/29 07:44:53;;;;;;;5.80;3.58;;;;;;;;;;4995370;28;20048;-82
2021/07/29 07:47:38;;;;;;;5.18;2.92;;;;;;;;;;5004165;28;20064;-83
2021/07/29 07:50:23;;;;;;;6.57;2.95;;;;;;;;;;5000258;28;20034;-81
2021/07/29 07:53:08;;;;;;;6.20;3.78;;;;;;;;;;4998095;28;20445;-82
2021/07/29 07:55:54;;;;;;;4.55;3.08;;;;;;;;;;4999231;28;20022;-81
2021/07/29 07:58:39;;;;;;;4.75;2.95;;;;;;;;;;5007504;28;20026;-81
2021/07/29 08:01:24;;;;;;;6.45;3.30;;;;;;;;;;5023581;28;20484;-81
2021/07/29 08:04:10;;;;;;;5.90;3.60;;;;;;;;;;5005902;28;20022;-82
2021/07/29 08:06:55;;;;;;;4.88;2.95;;;;;;;;;;5004761;28;20392;-81
2021/07/29 08:09:40;;;;;;;5.43;3.30;;;;;;;;;;5009602;28;20022;-81
2021/07/29 08:12:25;;;;;;;7.82;2.90;;;;;;;;;;5014201;28;20550;-82
2021/07/29 08:15:11;;;;;;;7.68;4.07;;;;;;;;;;5004262;28;20030;-83
2021/07/29 08:17:56;;;;;;;6.28;3.20;;;;;;;;;;5006196;28;20034;-82
2021/07/29 08:20:42;;;;;;;6.25;3.17;;;;;;;;;;4997958;28;20381;-82
2021/07/29 08:23:30;;;;;;;4.13;2.88;;;;;;;;;;4996760;28;20063;-84
2021/07/29 08:26:15;;;;;;;6.85;3.22;;;;;;;;;;5007763;28;20037;-82
2021/07/29 08:29:00;;;;;;;5.03;3.30;;;;;;;;;;4999720;28;20088;-83
2021/07/29 08:32:09;;;;;;;5.45;3.40;;;;;;;;;;4991047;28;20062;-81
2021/07/29 08:34:54;;;;;;;4.07;3.07;;;;;;;;;;5002445;28;20153;-81
2021/07/29 08:37:46;;;;;;;6.47;3.30;;;;;;;;;;5001434;28;20628;-80
2021/07/29 08:40:33;;;;;;;6.90;3.17;;;;;;;;;;5005569;28;20091;-81
2021/07/29 08:43:19;;;;;;;6.68;3.55;;;;;;;;;;5045391;28;20041;-82
2021/07/29 08:46:06;;;;;;;5.18;3.20;;;;;;;;;;5043500;28;20399;-81
2021/07/29 08:48:52;;;;;;;6.18;3.75;;;;;;;;;;5031370;28;20028;-81
2021/07/29 08:51:37;;;;;;;6.13;3.50;;;;;;;;;;5034895;28;20383;-81
2021/07/29 08:54:23;;;;;;;7.72;4.38;;;;;;;;;;5032443;28;20025;-81
2021/07/29 08:57:12;;;;;;;6.43;3.92;;;;;;;;;;5035044;28;20433;-81
2021/07/29 09:00:06;;;;;;;4.63;3.63;;;;;;;;;;5031518;28;20025;-83
2021/07/29 09:02:52;;;;;;;5.20;3.00;;;;;;;;;;5012240;28;20028;-82
2021/07/29 09:05:37;;;;;;;5.35;3.67;;;;;;;;;;5030584;28;20111;-82
2021/07/29 09:08:22;;;;;;;4.45;3.25;;;;;;;;;;5022039;28;20060;-84
2021/07/29 09:11:26;;;;;;;5.65;3.65;;;;;;;;;;5023112;28;20492;-83
2021/07/29 09:14:13;;;;;;;4.47;3.60;;;;;;;;;;5038943;28;20032;-83
2021/07/29 09:17:01;;;;;;;8.07;4.25;;;;;;;;;;5025420;28;20586;-83
2021/07/29 09:19:48;;;;;;;5.43;3.77;;;;;;;;;;5016194;28;20040;-83
2021/07/29 09:22:33;;;;;;;7.03;3.78;;;;;;;;;;5017483;28;20271;-84
2021/07/29 09:25:22;;;;;;;7.43;3.67;;;;;;;;;;5032340;28;20021;-84
2021/07/29 09:28:07;;;;;;;6.47;3.80;;;;;;;;;;5018384;28;20040;-85
2021/07/29 09:30:52;;;;;;;5.38;3.63;;;;;;;;;;5020223;28;20025;-84
2021/07/29 09:33:52;;;;;;;8.57;3.30;;;;;;;;;;5013549;28;20036;-84
2021/07/29 09:36:38;;;;;;;6.80;3.50;;;;;;;;;;5029796;28;20060;-84
2021/07/29 09:39:23;;;;;;;6.63;3.78;;;;;;;;;;5021231;28;20545;-83
2021/07/29 09:42:22;;;;;;;5.85;3.45;;;;;;;;;;5020312;28;20515;-84
2021/07/29 09:45:08;;;;;;;;;;;;;;;;;;4977153;28;20219;-84
2021/07/29 09:47:57;;;;;;;7.10;3.70;;;;;;;;;;5021530;28;20376;-84
2021/07/29 09:50:42;;;;;;;5.10;3.67;;;;;;;;;;5011251;28;20025;-83
2021/07/29 09:53:32;;;;;;;7.15;3.75;;;;;;;;;;5027196;28;20060;-83
2021/07/29 09:56:21;;;;;;;6.63;3.90;;;;;;;;;;5017168;28;20096;-84
2021/07/29 09:59:06;;;;;;;6.00;3.75;;;;;;;;;;5033624;28;20029;-83
2021/07/29 10:01:51;;;;;;;8.00;4.32;;;;;;;;;;5024080;28;20109;-83
2021/07/29 10:04:39;;;;;;;5.72;3.95;;;;;;;;;;5017891;28;20029;-83
2021/07/29 10:07:27;;;;;;;4.90;3.53;;;;;;;;;;5027619;28;20478;-84
2021/07/29 10:10:16;;;;;;;7.68;5.03;;;;;;;;;;5021614;28;20032;-83
2021/07/29 10:13:01;;;;;;;6.10;3.67;;;;;;;;;;5032741;28;20031;-82
2021/07/29 10:15:46;;;;;;;6.22;4.00;;;;;;;;;;5030814;28;20017;-82
2021/07/29 10:18:50;;;;;;;5.47;3.50;;;;;;;;;;5040457;28;20076;-83
2021/07/29 10:21:36;;;;;;;5.60;3.70;;;;;;;;;;5028415;28;20670;-83
2021/07/29 10:24:21;;;;;;;6.30;3.85;;;;;;;;;;5025917;28;20033;-83
2021/07/29 10:27:07;;;;;;;5.70;3.95;;;;;;;;;;5034677;28;20029;-84
2021/07/29 10:29:52;;;;;;;6.32;4.07;;;;;;;;;;5029769;28;20785;-83
2021/07/29 10:32:47;;;;;;;7.25;4.45;;;;;;;;;;5031641;28;20426;-82
2021/07/29 10:35:32;;;;;;;6.28;3.38;;;;;;;;;;5032886;28;20033;-82
2021/07/29 10:38:40;;;;;;;6.72;4.03;;;;;;;;;;5032593;28;20052;-84
2021/07/29 10:41:28;;;;;;;5.68;4.10;;;;;;;;;;5032996;28;20037;-84
2021/07/29 10:44:35;;;;;;;6.20;4.03;;;;;;;;;;5031367;28;20040;-82
2021/07/29 10:47:34;;;;;;;5.55;3.75;;;;;;;;;;5033934;28;20012;-83
2021/07/29 10:50:19;;;;;;;7.45;4.32;;;;;;;;;;5031912;28;20044;-82
2021/07/29 10:53:04;;;;;;;6.55;4.28;;;;;;;;;;5015584;28;20214;-82
2021/07/29 10:55:50;;;;;;;8.82;4.35;;;;;;;;;;5020939;28;20395;-85
2021/07/29 10:58:42;;;;;;;5.05;3.78;;;;;;;;;;5024093;28;20463;-84
2021/07/29 11:01:50;;;;;;;6.15;4.13;;;;;;;;;;5018218;28;20029;-83
2021/07/29 11:04:52;;;;;;;6.20;4.13;;;;;;;;;;5028712;28;20024;-86
2021/07/29 11:07:41;;;;;;;10.30;4.22;;;;;;;;;;5023530;28;20025;-85
2021/07/29 11:10:27;;;;;;;8.55;3.75;;;;;;;;;;5020076;28;20543;-85
2021/07/29 11:13:13;;;;;;;5.95;4.30;;;;;;;;;;5023346;28;20116;-87
2021/07/29 11:16:00;;;;;;;8.32;4.45;;;;;;;;;;5027244;28;20530;-84
2021/07/29 11:18:59;;;;;;;7.20;3.97;;;;;;;;;;5020535;28;20029;-84
2021/07/29 11:21:44;;;;;;;6.93;4.13;;;;;;;;;;5028436;28;20028;-84
2021/07/29 11:24:29;;;;;;;5.97;4.05;;;;;;;;;;5028339;28;20037;-84
2021/07/29 11:27:28;;;;;;;5.28;3.95;;;;;;;;;;5013769;28;20045;-84
2021/07/29 11:30:13;;;;;;;5.17;3.83;;;;;;;;;;5025245;28;20041;-85
2021/07/29 11:32:58;;;;;;;7.03;4.15;;;;;;;;;;5021232;28;20025;-86
2021/07/29 11:35:43;;;;;;;6.93;4.40;;;;;;;;;;5008546;28;20017;-84
2021/07/29 11:38:29;;;;;;;7.85;4.15;;;;;;;;;;5021436;28;20029;-83
2021/07/29 11:41:14;;;;;;;5.95;4.03;;;;;;;;;;5004501;28;20049;-86
2021/07/29 11:44:03;;;;;;;6.78;3.70;;;;;;;;;;5015352;28;20036;-85
2021/07/29 11:46:58;;;;;;;6.20;3.72;;;;;;;;;;5031572;28;20036;-82
2021/07/29 11:49:48;;;;;;;7.32;3.75;;;;;;;;;;5033515;28;20021;-84
2021/07/29 11:52:33;;;;;;;4.93;3.50;;;;;;;;;;5035257;28;20022;-84
2021/07/29 11:55:20;;;;;;;5.90;3.72;;;;;;;;;;5023988;28;20025;-83
2021/07/29 11:58:18;;;;;;;6.25;3.80;;;;;;;;;;5031335;28;20035;-82
2021/07/29 12:01:13;;;;;;;6.63;3.90;;;;;;;;;;5028168;28;20029;-82
2021/07/29 12:03:59;;;;;;;7.07;3.97;;;;;;;;;;5028812;28;20025;-84
2021/07/29 12:06:44;;;;;;;7.25;4.53;;;;;;;;;;5024846;28;20351;-82
2021/07/29 12:09:31;;;;;;;7.38;4.40;;;;;;;;;;5045589;28;20487;-82
2021/07/29 12:12:16;;;;;;;5.97;3.40;;;;;;;;;;5030724;28;20133;-85
2021/07/29 12:15:02;;;;;;;8.07;4.78;;;;;;;;;;5040186;28;20013;-84
2021/07/29 12:17:47;;;;;;;9.93;6.90;;;;;;;;;;5023693;28;20028;-83
2021/07/29 12:20:42;;;;;;;6.05;4.50;;;;;;;;;;5028677;28;20023;-83
2021/07/29 12:23:28;;;;;;;5.35;3.85;;;;;;;;;;5049198;28;20025;-83
2021/07/29 12:26:14;;;;;;;5.93;4.25;;;;;;;;;;5017080;28;20041;-82
2021/07/29 12:28:59;;;;;;;6.82;3.72;;;;;;;;;;5016333;28;20018;-84
2021/07/29 12:31:45;;;;;;;7.05;4.10;;;;;;;;;;5023523;28;20021;-83
2021/07/29 12:34:34;;;;;;;8.05;3.67;;;;;;;;;;5033532;28;20017;-84
2021/07/29 12:37:29;;;;;;;5.60;4.15;;;;;;;;;;5031033;28;20353;-86
2021/07/29 12:40:24;;;;;;;5.68;4.18;;;;;;;;;;5047812;28;20399;-86
2021/07/29 12:43:23;;;;;;;8.32;4.15;;;;;;;;;;5040624;28;20056;-83
2021/07/29 12:46:09;;;;;;;7.15;4.05;;;;;;;;;;5030849;28;20082;-82
2021/07/29 12:48:56;;;;;;;5.88;4.00;;;;;;;;;;5033117;28;20551;-83
2021/07/29 12:51:49;;;;;;;8.40;5.15;;;;;;;;;;5019181;28;20051;-81
2021/07/29 12:54:54;;;;;;;10.05;5.53;;;;;;;;;;5029766;28;20056;-82
2021/07/29 12:57:50;;;;;;;5.70;3.70;;;;;;;;;;5036149;28;20025;-82
2021/07/29 13:00:42;;;;;;;7.75;4.55;;;;;;;;;;5026815;28;20032;-83
2021/07/29 13:06:33;;;;;;;6.90;4.18;;;;;;;;;;5045704;28;20021;-85
2021/07/29 13:09:18;;;;;;;5.30;3.95;;;;;;;;;;5020902;28;20074;-86
2021/07/29 13:12:04;;;;;;;8.75;4.45;;;;;;;;;;5031532;28;20017;-85
2021/07/29 13:14:49;;;;;;;6.22;4.30;;;;;;;;;;5012101;28;20348;-83
2021/07/29 13:17:34;;;;;;;6.78;4.00;;;;;;;;;;5035733;28;20082;-84
2021/07/29 13:20:20;;;;;;;5.60;3.78;;;;;;;;;;5015202;28;20029;-85
2021/07/29 13:23:05;;;;;;;6.13;3.65;;;;;;;;;;5028862;28;20029;-83
2021/07/29 13:25:50;;;;;;;4.22;3.35;;;;;;;;;;5047584;28;20356;-81
2021/07/29 13:28:35;;;;;;;5.00;3.50;;;;;;;;;;5028953;28;20045;-81
2021/07/29 13:31:21;;;;;;;5.07;3.80;;;;;;;;;;5043353;28;20112;-83
2021/07/29 13:34:06;;;;;;;5.78;3.85;;;;;;;;;;5048536;28;20445;-81
2021/07/29 13:36:52;;;;;;;4.88;3.53;;;;;;;;;;5031318;28;20036;-80
2021/07/29 13:39:38;;;;;;;5.57;3.88;;;;;;;;;;5029202;28;20096;-80
2021/07/29 13:42:23;;;;;;;4.97;3.90;;;;;;;;;;5018490;28;20077;-80
2021/07/29 13:45:20;;;;;;;6.20;3.63;;;;;;;;;;5041662;28;20016;-80
2021/07/29 13:48:06;;;;;;;11.00;6.75;;;;;;;;;;5021513;28;20384;-81
2021/07/29 13:50:51;;;;;;;12.35;8.13;;;;;;;;;;5033919;28;20451;-81
2021/07/29 13:53:36;;;;;;;6.85;4.80;;;;;;;;;;5033157;28;20033;-80
2021/07/29 13:56:22;;;;;;;6.53;3.63;;;;;;;;;;5028975;28;20186;-81
2021/07/29 13:59:07;;;;;;;5.95;3.95;;;;;;;;;;5033526;28;20497;-81
2021/07/29 14:01:52;;;;;;;10.05;3.70;;;;;;;;;;5032212;28;20389;-79
2021/07/29 14:04:37;;;;;;;5.00;3.40;;;;;;;;;;5015791;28;20569;-83
2021/07/29 14:07:23;;;;;;;8.35;3.70;;;;;;;;;;5021652;28;20476;-83
2021/07/29 14:10:09;;;;;;;6.00;3.80;;;;;;;;;;5024968;28;20072;-83
2021/07/29 14:12:54;;;;;;;4.85;3.47;;;;;;;;;;5025569;28;20036;-83
2021/07/29 14:15:39;;;;;;;10.40;5.20;;;;;;;;;;5031434;28;20379;-83
2021/07/29 14:18:25;;;;;;;5.97;3.95;;;;;;;;;;5021900;28;20109;-84
2021/07/29 14:21:12;;;;;;;6.05;3.78;;;;;;;;;;5013995;28;20163;-82
2021/07/29 14:23:58;;;;;;;8.63;3.92;;;;;;;;;;5026922;28;20025;-84
2021/07/29 14:26:43;;;;;;;5.82;3.83;;;;;;;;;;5028153;28;20022;-83
2021/07/29 14:29:28;;;;;;;6.93;3.88;;;;;;;;;;5033556;28;20051;-84
2021/07/29 14:32:13;;;;;;;7.25;3.38;;;;;;;;;;5045489;28;20025;-84
2021/07/29 14:34:59;;;;;;;5.35;3.97;;;;;;;;;;5021933;28;20380;-83
2021/07/29 14:37:45;;;;;;;7.28;4.13;;;;;;;;;;5044987;28;20090;-83
2021/07/29 14:40:30;;;;;;;5.55;3.35;;;;;;;;;;5042617;28;20496;-83
2021/07/29 14:43:15;;;;;;;5.68;3.72;;;;;;;;;;5026372;28;20387;-82
2021/07/29 14:48:37;;;;;;;5.05;3.90;;;;;;;;;;5030959;28;20025;-84
2021/07/29 14:49:17;;;;;;;7.07;3.75;;;;;;;;;;5035165;28;20072;-83
2021/07/29 14:52:02;;;;;;;4.10;3.05;;;;;;;;;;5014534;28;20491;-83
2021/07/29 14:54:48;;;;;;;6.38;3.90;;;;;;;;;;5020757;28;20025;-85
2021/07/29 15:19:34;;;;;;;5.95;4.22;;;;;;;;;;5031115;28;20041;-84
2021/07/29 16:08:16;;;;;;;6.55;3.78;;;;;;;;;;5048828;28;20032;-76
2021/07/29 16:11:01;;;;;;;6.95;4.10;;;;;;;;;;5022561;28;20034;-76
2021/07/29 16:13:54;;;;;;;5.90;3.13;;;;;;;;;;5029251;28;20020;-77
2021/07/29 16:16:40;;;;;;;10.55;8.43;;;;;;;;;;5032950;28;20024;-76
2021/07/29 16:19:27;;;;;;;10.10;6.50;;;;;;;;;;5029985;28;20539;-76
2021/07/29 16:22:15;;;;;;;7.03;4.18;;;;;;;;;;5027013;28;20131;-76
2021/07/29 16:25:00;;;;;;;5.60;3.38;;;;;;;;;;5022721;28;20095;-75
2021/07/29 16:27:45;;;;;;;3.97;3.25;;;;;;;;;;5024375;28;20025;-76
2021/07/29 16:30:30;;;;;;;5.50;3.38;;;;;;;;;;5030340;28;20082;-76
2021/07/29 16:33:15;;;;;;;8.02;3.60;;;;;;;;;;5031017;28;20033;-76
2021/07/29 16:36:00;;;;;;;5.25;3.50;;;;;;;;;;5027679;28;20025;-76
2021/07/29 16:38:46;;;;;;;6.60;3.80;;;;;;;;;;5030101;28;20463;-76
2021/07/29 16:41:32;;;;;;;4.60;3.40;;;;;;;;;;5014254;28;20066;-76
2021/07/29 16:44:18;;;;;;;6.20;3.08;;;;;;;;;;5008555;28;20065;-77
2021/07/29 16:47:03;;;;;;;8.75;4.50;;;;;;;;;;4996630;28;20092;-77
2021/07/29 16:49:49;;;;;;;6.40;3.45;;;;;;;;;;4997061;28;20318;-77
2021/07/29 16:52:34;;;;;;;7.05;3.38;;;;;;;;;;4995648;28;20026;-77
2021/07/29 16:55:19;;;;;;;6.13;3.22;;;;;;;;;;4999323;28;20768;-78
2021/07/29 16:58:05;;;;;;;8.57;3.65;;;;;;;;;;5003226;28;20030;-78
2021/07/29 17:00:50;;;;;;;5.50;3.25;;;;;;;;;;5004385;28;20076;-78
2021/07/29 17:03:35;;;;;;;6.32;3.50;;;;;;;;;;5000433;28;20081;-78
2021/07/29 17:06:21;;;;;;;4.80;3.10;;;;;;;;;;5004263;28;20034;-78
2021/07/29 17:09:06;;;;;;;4.25;3.33;;;;;;;;;;5004263;28;20022;-77
2021/07/29 17:11:57;;;;;;;5.25;3.30;;;;;;;;;;5006879;28;20533;-80
2021/07/29 17:15:00;;;;;;;4.20;3.25;;;;;;;;;;5007004;28;20083;-80
2021/07/29 17:17:45;;;;;;;5.05;3.13;;;;;;;;;;4985734;28;20105;-82
2021/07/29 17:20:34;;;;;;;6.15;3.33;;;;;;;;;;4989176;28;20130;-80
2021/07/29 17:23:29;;;;;;;6.15;3.45;;;;;;;;;;5003071;28;20042;-81
2021/07/29 17:26:17;;;;;;;5.32;3.25;;;;;;;;;;4996893;28;20034;-80
2021/07/29 17:29:08;;;;;;;4.70;3.13;;;;;;;;;;4999043;28;20038;-81
2021/07/29 17:32:26;;;;;;;7.28;4.72;;;;;;;;;;5008947;28;20489;-81
2021/07/29 17:35:12;;;;;;;6.75;3.60;;;;;;;;;;5001728;28;20117;-80
2021/07/29 17:37:58;;;;;;;7.88;3.50;;;;;;;;;;4997272;28;20025;-80
2021/07/29 17:40:47;;;;;;;6.07;3.13;;;;;;;;;;5003440;28;20520;-79
2021/07/29 17:43:32;;;;;;;6.38;3.28;;;;;;;;;;5042946;28;20440;-79
2021/07/29 17:46:18;;;;;;;4.88;3.58;;;;;;;;;;5025239;28;20128;-81
2021/07/29 17:49:12;;;;;;;4.50;3.17;;;;;;;;;;5029225;28;20025;-80
2021/07/29 17:55:55;;;;;;;7.70;3.28;;;;;;;;;;4999403;28;20017;-80
2021/07/29 17:58:42;;;;;;;6.20;3.00;;;;;;;;;;5018367;28;20120;-80